Davis Sea — WDC2883 — position and weather

sailwx.info

Track history (hours):
 
Tides and Currents Weather Stations Pressure Air Temp Water Temp Dewpoint Dewpoint Depression Visibility Wind Speed Wind Dir Waves Ship Positions

Davis Sea

Owner: Kirby Offshore Marine, LLC, Staten Island, NY. More information available from US FCC via Universal Licensing System and Coast Guard Vessel Documentation Center.

Last reported at 2016-Feb-12 06:28 UTC. Time now 2016-Feb-12 16:14 UTC.
Position N 29°46' W 095°06'.

; draft 2.6 m.

MMSI: 367129540.

Date/timePositionNaut miles runAvg speedWind from/ knotsBaromVisibWave heightAir tempDewpointWater temp
2016-Feb-12 06:28N 29°46' W 095°06'1 0.9
2016-Feb-12 05:31N 29°46' W 095°05'1 0.6
2016-Feb-12 04:27N 29°46' W 095°05'0 0.2
2016-Feb-12 03:25N 29°46' W 095°05'8 0.3
2016-Feb-11 02:21N 29°44' W 095°14'4 4.4
2016-Feb-11 01:26N 29°44' W 095°09'5 5.2
2016-Feb-11 00:33N 29°47' W 095°05'1 0.0
2016-Feb-09 20:32N 29°46' W 095°05'0 0.1
2016-Feb-09 15:32N 29°46' W 095°06'1 0.0
2016-Feb-09 00:28N 29°45' W 095°06'1 0.3
2016-Feb-08 22:16N 29°46' W 095°06'0 0.0
2016-Feb-08 21:32N 29°46' W 095°06'0 0.0
2016-Feb-08 19:28N 29°46' W 095°06'0 0.0
2016-Feb-08 18:18N 29°46' W 095°06'0 0.0
2016-Feb-08 17:03N 29°46' W 095°06'0 0.0
2016-Feb-08 16:25N 29°46' W 095°06'0 0.0
2016-Feb-08 15:30N 29°46' W 095°06'  
2016-Feb-05 23:33N 29°47' W 095°05'1 0.3
2016-Feb-05 21:19N 29°46' W 095°05'1 0.0
2016-Feb-04 21:30N 29°46' W 095°06'0 0.0
2016-Feb-04 19:33N 29°46' W 095°06'0 0.0
2016-Feb-04 17:13N 29°46' W 095°06'2 0.1
2016-Feb-03 23:30N 29°47' W 095°04'0 0.1
2016-Feb-03 22:33N 29°47' W 095°04'0 0.0
2016-Feb-03 21:33N 29°47' W 095°04'0 0.0
2016-Feb-03 20:33N 29°47' W 095°04'0 0.0
2016-Feb-03 19:33N 29°47' W 095°04'0 0.0
2016-Feb-03 18:33N 29°47' W 095°04'0 0.0
2016-Feb-03 17:33N 29°47' W 095°04'0 0.0
2016-Feb-03 16:33N 29°47' W 095°04'0 0.0
2016-Feb-03 15:07N 29°47' W 095°04'0 0.0
2016-Feb-03 14:33N 29°47' W 095°04'0 0.0
2016-Feb-03 13:32N 29°47' W 095°04'0 0.3
2016-Feb-03 12:17N 29°47' W 095°05'4 5.3
2016-Feb-03 11:32N 29°44' W 095°08'5 0.3
2016-Feb-02 19:31N 29°43' W 095°14'5 5.4
2016-Feb-02 18:33N 29°44' W 095°08'3 2.4
2016-Feb-02 17:09N 29°46' W 095°05'  
Track history (hours):
 
Tides and Currents Weather Stations Pressure Air Temp Water Temp Dewpoint Dewpoint Depression Visibility Wind Speed Wind Dir Waves Ship Positions

Davis Sea

Owner: Kirby Offshore Marine, LLC, Staten Island, NY. More information available from US FCC via Universal Licensing System and Coast Guard Vessel Documentation Center.

Last reported at 2016-Feb-12 06:28 UTC. Time now 2016-Feb-12 16:14 UTC.
Position N 29°46' W 095°06'.

; draft 2.6 m.

MMSI: 367129540.

Date/timePositionNaut miles runAvg speedWind from/ knotsBaromVisibWave heightAir tempDewpointWater temp
2016-Feb-12 06:28N 29°46' W 095°06'1 0.9
2016-Feb-12 05:31N 29°46' W 095°05'1 0.6
2016-Feb-12 04:27N 29°46' W 095°05'0 0.2
2016-Feb-12 03:25N 29°46' W 095°05'8 0.3
2016-Feb-11 02:21N 29°44' W 095°14'4 4.4
2016-Feb-11 01:26N 29°44' W 095°09'5 5.2
2016-Feb-11 00:33N 29°47' W 095°05'1 0.0
2016-Feb-09 20:32N 29°46' W 095°05'0 0.1
2016-Feb-09 15:32N 29°46' W 095°06'1 0.0
2016-Feb-09 00:28N 29°45' W 095°06'1 0.3
2016-Feb-08 22:16N 29°46' W 095°06'0 0.0
2016-Feb-08 21:32N 29°46' W 095°06'0 0.0
2016-Feb-08 19:28N 29°46' W 095°06'0 0.0
2016-Feb-08 18:18N 29°46' W 095°06'0 0.0
2016-Feb-08 17:03N 29°46' W 095°06'0 0.0
2016-Feb-08 16:25N 29°46' W 095°06'0 0.0
2016-Feb-08 15:30N 29°46' W 095°06'  
2016-Feb-05 23:33N 29°47' W 095°05'1 0.3
2016-Feb-05 21:19N 29°46' W 095°05'1 0.0
2016-Feb-04 21:30N 29°46' W 095°06'0 0.0
2016-Feb-04 19:33N 29°46' W 095°06'0 0.0
2016-Feb-04 17:13N 29°46' W 095°06'2 0.1
2016-Feb-03 23:30N 29°47' W 095°04'0 0.1
2016-Feb-03 22:33N 29°47' W 095°04'0 0.0
2016-Feb-03 21:33N 29°47' W 095°04'0 0.0
2016-Feb-03 20:33N 29°47' W 095°04'0 0.0
2016-Feb-03 19:33N 29°47' W 095°04'0 0.0
2016-Feb-03 18:33N 29°47' W 095°04'0 0.0
2016-Feb-03 17:33N 29°47' W 095°04'0 0.0
2016-Feb-03 16:33N 29°47' W 095°04'0 0.0
2016-Feb-03 15:07N 29°47' W 095°04'0 0.0
2016-Feb-03 14:33N 29°47' W 095°04'0 0.0
2016-Feb-03 13:32N 29°47' W 095°04'0 0.3
2016-Feb-03 12:17N 29°47' W 095°05'4 5.3
2016-Feb-03 11:32N 29°44' W 095°08'5 0.3
2016-Feb-02 19:31N 29°43' W 095°14'5 5.4
2016-Feb-02 18:33N 29°44' W 095°08'3 2.4
2016-Feb-02 17:09N 29°46' W 095°05'  

Dump ship's entire track history